Time;durP1;ratioP1;P1;durP2;ratioP2;P2;SDS_P1;SDS_P2;PMS_P1;PMS_P2;Temp;Humidity;BMP_temperature;BMP_pressure;BME280_temperature;BME280_humidity;BME280_pressure;Samples;Min_cycle;Max_cycle;Signal;HPM_P1;HPM_P2
2022/07/07 00:01:12;;;;;;;9.18;6.35;;;;;;;;;;5034299;28;20105;-76
2022/07/07 00:03:38;;;;;;;8.55;6.28;;;;;;;;;;5034592;28;20470;-74
2022/07/07 00:06:04;;;;;;;7.93;6.35;;;;;;;;;;5033558;28;20029;-76
2022/07/07 00:08:30;;;;;;;11.95;7.35;;;;;;;;;;5032369;28;20541;-75
2022/07/07 00:10:56;;;;;;;7.57;6.07;;;;;;;;;;5032315;28;20025;-74
2022/07/07 00:13:22;;;;;;;7.75;6.13;;;;;;;;;;5032474;28;20026;-75
2022/07/07 00:15:48;;;;;;;8.55;6.95;;;;;;;;;;5032091;28;20064;-75
2022/07/07 00:18:15;;;;;;;10.27;5.93;;;;;;;;;;5030869;28;20036;-75
2022/07/07 00:20:41;;;;;;;10.75;6.78;;;;;;;;;;5031097;28;20036;-75
2022/07/07 00:23:07;;;;;;;9.10;6.60;;;;;;;;;;5032116;28;20030;-76
2022/07/07 00:25:33;;;;;;;8.48;6.53;;;;;;;;;;5031829;28;20041;-76
2022/07/07 00:27:59;;;;;;;9.27;6.55;;;;;;;;;;5032422;28;20490;-75
2022/07/07 00:30:25;;;;;;;9.02;7.38;;;;;;;;;;5032145;28;20029;-75
2022/07/07 00:32:51;;;;;;;7.82;6.68;;;;;;;;;;5032246;28;20026;-74
2022/07/07 00:35:17;;;;;;;12.27;7.38;;;;;;;;;;5032207;28;20026;-75
2022/07/07 00:37:43;;;;;;;9.98;7.20;;;;;;;;;;5031093;28;20112;-76
2022/07/07 00:40:09;;;;;;;8.07;6.35;;;;;;;;;;5032204;28;20029;-76
2022/07/07 00:42:35;;;;;;;7.07;6.22;;;;;;;;;;5032099;28;20035;-76
2022/07/07 00:45:01;;;;;;;9.18;6.53;;;;;;;;;;5032042;28;20033;-76
2022/07/07 00:47:27;;;;;;;7.93;5.85;;;;;;;;;;5031888;28;20065;-76
2022/07/07 00:49:53;;;;;;;9.77;6.50;;;;;;;;;;5032413;28;20466;-76
2022/07/07 00:52:20;;;;;;;12.63;7.47;;;;;;;;;;5032207;28;20025;-76
2022/07/07 00:54:53;;;;;;;7.95;5.95;;;;;;;;;;5031057;28;20029;-75
2022/07/07 00:57:19;;;;;;;7.50;6.47;;;;;;;;;;5031697;28;20017;-76
2022/07/07 00:59:45;;;;;;;8.35;6.25;;;;;;;;;;5061544;23;20090;-74
2022/07/07 01:02:11;;;;;;;10.82;6.72;;;;;;;;;;5052148;28;20025;-77
2022/07/07 01:04:37;;;;;;;9.75;7.28;;;;;;;;;;5052289;28;20093;-75
2022/07/07 01:07:03;;;;;;;8.57;6.13;;;;;;;;;;5051998;28;20052;-77
2022/07/07 01:09:29;;;;;;;13.23;6.55;;;;;;;;;;5052058;28;20037;-76
2022/07/07 01:11:56;;;;;;;7.05;6.32;;;;;;;;;;5052139;28;20025;-73
2022/07/07 01:14:23;;;;;;;10.35;6.07;;;;;;;;;;5052080;28;20028;-74
2022/07/07 01:16:49;;;;;;;9.20;6.13;;;;;;;;;;5050625;28;20029;-75
2022/07/07 01:19:15;;;;;;;8.68;6.55;;;;;;;;;;5052018;28;20029;-74
2022/07/07 01:21:49;;;;;;;8.68;7.50;;;;;;;;;;5054515;28;20033;-75
2022/07/07 01:24:15;;;;;;;9.55;7.32;;;;;;;;;;5056111;28;20033;-74
2022/07/07 01:26:41;;;;;;;11.35;7.35;;;;;;;;;;5055724;28;20111;-74
2022/07/07 01:29:07;;;;;;;10.48;7.78;;;;;;;;;;5055725;28;20025;-74
2022/07/07 01:31:33;;;;;;;9.65;7.47;;;;;;;;;;5056228;28;20029;-75
2022/07/07 01:33:59;;;;;;;9.43;7.28;;;;;;;;;;5056707;28;20061;-74
2022/07/07 01:36:24;;;;;;;8.95;7.53;;;;;;;;;;5056338;28;20036;-74
2022/07/07 01:38:50;;;;;;;12.20;8.35;;;;;;;;;;5063315;28;20100;-74
2022/07/07 01:41:16;;;;;;;9.82;7.35;;;;;;;;;;5063553;28;20029;-73
2022/07/07 01:43:42;;;;;;;9.50;8.00;;;;;;;;;;5059267;28;20064;-76
2022/07/07 01:46:08;;;;;;;11.48;9.10;;;;;;;;;;5063811;28;20043;-75
2022/07/07 01:48:34;;;;;;;12.73;9.05;;;;;;;;;;5078926;28;20047;-74
2022/07/07 01:51:00;;;;;;;11.02;9.43;;;;;;;;;;5074030;28;20021;-74
2022/07/07 01:53:26;;;;;;;12.30;9.23;;;;;;;;;;5066988;28;20019;-74
2022/07/07 01:55:52;;;;;;;12.35;7.82;;;;;;;;;;5062218;28;20029;-74
2022/07/07 01:58:18;;;;;;;12.40;9.18;;;;;;;;;;5054843;28;20033;-76
2022/07/07 02:00:44;;;;;;;11.70;9.93;;;;;;;;;;5055107;28;20032;-75
2022/07/07 02:03:10;;;;;;;14.50;10.00;;;;;;;;;;5054876;28;20032;-75
2022/07/07 02:05:36;;;;;;;12.88;10.02;;;;;;;;;;5054557;28;20040;-74
2022/07/07 02:08:02;;;;;;;16.55;10.02;;;;;;;;;;5054990;28;20033;-75
2022/07/07 02:13:13;;;;;;;13.00;9.65;;;;;;;;;;5054749;28;20031;-74
2022/07/07 02:15:39;;;;;;;9.77;8.50;;;;;;;;;;5054372;28;20115;-75
2022/07/07 02:18:05;;;;;;;12.15;9.60;;;;;;;;;;5054706;28;20032;-76
2022/07/07 02:20:31;;;;;;;12.05;9.45;;;;;;;;;;5055366;28;20025;-73
2022/07/07 02:22:57;;;;;;;10.95;8.50;;;;;;;;;;5055367;28;20066;-74
2022/07/07 02:25:23;;;;;;;11.43;9.50;;;;;;;;;;5053748;28;20028;-74
2022/07/07 02:27:49;;;;;;;21.17;11.13;;;;;;;;;;5055980;28;20051;-74
2022/07/07 02:30:15;;;;;;;13.02;10.48;;;;;;;;;;5057092;28;20385;-73
2022/07/07 02:32:42;;;;;;;12.10;9.30;;;;;;;;;;5060053;28;20057;-74
2022/07/07 02:35:08;;;;;;;13.13;10.10;;;;;;;;;;5062759;28;20427;-74
2022/07/07 02:37:34;;;;;;;14.10;10.35;;;;;;;;;;5057034;28;20054;-74
2022/07/07 02:40:00;;;;;;;13.18;9.07;;;;;;;;;;5057578;28;20104;-77
2022/07/07 02:42:26;;;;;;;13.65;10.13;;;;;;;;;;5054725;28;20524;-73
2022/07/07 02:44:52;;;;;;;12.63;9.52;;;;;;;;;;5055488;28;20032;-74
2022/07/07 02:47:18;;;;;;;13.90;10.27;;;;;;;;;;5057577;28;20024;-73
2022/07/07 02:49:44;;;;;;;13.57;9.65;;;;;;;;;;5062820;28;20029;-73
2022/07/07 02:52:09;;;;;;;12.57;10.02;;;;;;;;;;5064267;28;20028;-74
2022/07/07 02:54:35;;;;;;;13.10;9.88;;;;;;;;;;5064759;28;20112;-77
2022/07/07 02:57:01;;;;;;;16.05;10.95;;;;;;;;;;5073325;28;20033;-74
2022/07/07 02:59:27;;;;;;;14.00;10.98;;;;;;;;;;5071483;28;20100;-76
2022/07/07 03:01:53;;;;;;;16.52;11.18;;;;;;;;;;5057648;28;20504;-75
2022/07/07 03:04:19;;;;;;;16.88;12.20;;;;;;;;;;5053668;28;20381;-74
2022/07/07 03:06:45;;;;;;;15.00;11.02;;;;;;;;;;5038502;28;20024;-75
2022/07/07 03:09:12;;;;;;;17.38;12.32;;;;;;;;;;5034352;28;20057;-75
2022/07/07 03:11:38;;;;;;;16.15;11.70;;;;;;;;;;5034859;28;20075;-75
2022/07/07 03:14:04;;;;;;;17.50;13.75;;;;;;;;;;5034791;28;20392;-75
2022/07/07 03:16:30;;;;;;;18.75;14.35;;;;;;;;;;5032385;28;20022;-74
2022/07/07 03:18:56;;;;;;;15.38;12.02;;;;;;;;;;5033634;28;20100;-73
2022/07/07 03:21:22;;;;;;;17.30;14.13;;;;;;;;;;5033564;28;20029;-74
2022/07/07 03:23:48;;;;;;;20.90;14.20;;;;;;;;;;5033645;28;20041;-73
2022/07/07 03:26:14;;;;;;;20.55;15.23;;;;;;;;;;5033308;28;20029;-74
2022/07/07 03:28:40;;;;;;;20.85;14.15;;;;;;;;;;5033512;28;20067;-76
2022/07/07 03:31:06;;;;;;;21.77;15.85;;;;;;;;;;5038398;28;20044;-74
2022/07/07 03:33:31;;;;;;;23.98;15.60;;;;;;;;;;5032533;28;20021;-74
2022/07/07 03:35:57;;;;;;;20.80;15.57;;;;;;;;;;5033276;28;20037;-75
2022/07/07 03:38:23;;;;;;;21.92;15.35;;;;;;;;;;5035188;28;20030;-76
2022/07/07 03:40:49;;;;;;;35.13;25.73;;;;;;;;;;5033654;28;20071;-74
2022/07/07 03:43:15;;;;;;;20.63;16.25;;;;;;;;;;5031681;28;20109;-74
2022/07/07 03:45:41;;;;;;;23.50;16.05;;;;;;;;;;5033773;28;20126;-78
2022/07/07 03:48:08;;;;;;;24.50;15.23;;;;;;;;;;5034362;28;20482;-78
2022/07/07 03:50:34;;;;;;;22.80;15.13;;;;;;;;;;5034213;28;20022;-76
2022/07/07 03:52:59;;;;;;;23.63;15.15;;;;;;;;;;5034471;28;20674;-76
2022/07/07 03:55:25;;;;;;;21.15;14.95;;;;;;;;;;5034305;28;20022;-78
2022/07/07 03:57:51;;;;;;;18.42;13.93;;;;;;;;;;5036263;28;20029;-78
2022/07/07 04:00:17;;;;;;;17.98;12.80;;;;;;;;;;5035432;28;20033;-78
2022/07/07 04:02:43;;;;;;;19.35;13.38;;;;;;;;;;5040283;28;20025;-80
2022/07/07 04:05:09;;;;;;;24.02;14.55;;;;;;;;;;5039104;28;20029;-75
2022/07/07 04:07:35;;;;;;;19.77;11.85;;;;;;;;;;5039862;28;20117;-78
2022/07/07 04:10:02;;;;;;;20.60;12.20;;;;;;;;;;5034399;28;20053;-78
2022/07/07 04:12:28;;;;;;;15.48;11.65;;;;;;;;;;5033478;28;20026;-77
2022/07/07 04:14:55;;;;;;;17.02;12.02;;;;;;;;;;5032108;28;20028;-76
2022/07/07 04:17:20;;;;;;;18.40;11.00;;;;;;;;;;5033255;28;20049;-76
2022/07/07 04:19:46;;;;;;;15.18;10.68;;;;;;;;;;5034239;28;20136;-76
2022/07/07 04:22:12;;;;;;;12.98;9.60;;;;;;;;;;5035332;28;20394;-77
2022/07/07 04:24:38;;;;;;;13.43;9.20;;;;;;;;;;5037369;28;20493;-78
2022/07/07 04:27:05;;;;;;;11.68;7.63;;;;;;;;;;5036528;28;20613;-76
2022/07/07 04:29:31;;;;;;;10.40;7.43;;;;;;;;;;5043204;28;20482;-77
2022/07/07 04:31:57;;;;;;;7.28;5.88;;;;;;;;;;5035830;28;20022;-77
2022/07/07 04:34:23;;;;;;;10.95;7.22;;;;;;;;;;5035115;28;20029;-77
2022/07/07 04:36:49;;;;;;;14.32;7.75;;;;;;;;;;5033136;28;20028;-78
2022/07/07 04:39:15;;;;;;;12.93;9.30;;;;;;;;;;5033413;28;20394;-78
2022/07/07 04:41:41;;;;;;;14.45;9.43;;;;;;;;;;5033385;28;20036;-77
2022/07/07 04:44:07;;;;;;;11.07;8.00;;;;;;;;;;5035034;28;20061;-77
2022/07/07 04:46:33;;;;;;;7.43;5.72;;;;;;;;;;5036015;28;20029;-77
2022/07/07 04:49:00;;;;;;;7.57;5.30;;;;;;;;;;5032311;28;20032;-78
2022/07/07 04:51:26;;;;;;;6.25;5.15;;;;;;;;;;5033283;28;20014;-78
2022/07/07 04:53:52;;;;;;;8.07;4.70;;;;;;;;;;5034316;28;20168;-77
2022/07/07 04:56:18;;;;;;;9.63;7.10;;;;;;;;;;5035749;28;20037;-77
2022/07/07 04:58:44;;;;;;;8.00;5.60;;;;;;;;;;5037122;28;20120;-79
2022/07/07 05:01:10;;;;;;;7.00;4.10;;;;;;;;;;5044291;28;20049;-78
2022/07/07 05:03:36;;;;;;;4.40;3.50;;;;;;;;;;5039954;28;20025;-78
2022/07/07 05:06:02;;;;;;;6.25;4.05;;;;;;;;;;5039508;28;20029;-78
2022/07/07 05:08:29;;;;;;;10.98;6.78;;;;;;;;;;5038611;28;20025;-78
2022/07/07 05:10:55;;;;;;;5.20;3.42;;;;;;;;;;5041151;28;20025;-80
2022/07/07 05:13:22;;;;;;;5.65;3.10;;;;;;;;;;5040103;28;20028;-78
2022/07/07 05:15:48;;;;;;;6.05;3.50;;;;;;;;;;5039245;28;20398;-78
2022/07/07 05:18:15;;;;;;;4.88;2.50;;;;;;;;;;5037082;28;20115;-77
2022/07/07 05:20:41;;;;;;;4.03;2.80;;;;;;;;;;5037599;28;20022;-78
2022/07/07 05:23:07;;;;;;;5.97;2.70;;;;;;;;;;5038041;28;20032;-79
2022/07/07 05:25:33;;;;;;;4.03;2.35;;;;;;;;;;5040391;28;20100;-79
2022/07/07 05:27:59;;;;;;;5.05;2.10;;;;;;;;;;5049216;28;20517;-76
2022/07/07 05:30:25;;;;;;;3.80;2.10;;;;;;;;;;5060971;28;20052;-78
2022/07/07 05:32:51;;;;;;;4.20;2.67;;;;;;;;;;5060299;28;20025;-77
2022/07/07 05:35:17;;;;;;;4.25;2.33;;;;;;;;;;5061243;28;20048;-77
2022/07/07 05:37:43;;;;;;;3.67;1.85;;;;;;;;;;5057449;28;20056;-76
2022/07/07 05:40:10;;;;;;;3.25;1.83;;;;;;;;;;5040198;28;20072;-77
2022/07/07 05:42:35;;;;;;;3.95;1.80;;;;;;;;;;5039779;28;20572;-77
2022/07/07 05:45:01;;;;;;;5.90;3.35;;;;;;;;;;5036668;28;20041;-76
2022/07/07 05:47:27;;;;;;;3.42;1.80;;;;;;;;;;5037043;28;20100;-74
2022/07/07 05:49:54;;;;;;;12.07;5.93;;;;;;;;;;5036222;28;20088;-79
2022/07/07 05:52:20;;;;;;;4.43;1.83;;;;;;;;;;5035814;28;20080;-77
2022/07/07 05:54:46;;;;;;;3.50;1.42;;;;;;;;;;5036902;28;20037;-76
2022/07/07 05:57:14;;;;;;;4.18;1.73;;;;;;;;;;5035554;28;20021;-76
2022/07/07 05:59:40;;;;;;;4.05;1.15;;;;;;;;;;5035023;28;20071;-78
2022/07/07 06:02:06;;;;;;;2.50;1.40;;;;;;;;;;5038425;28;20033;-80
2022/07/07 06:04:32;;;;;;;5.63;1.80;;;;;;;;;;5037901;28;20084;-78
2022/07/07 06:06:58;;;;;;;4.90;2.28;;;;;;;;;;5038931;28;20021;-78
2022/07/07 06:09:24;;;;;;;7.75;2.50;;;;;;;;;;5036521;28;20068;-76
2022/07/07 06:11:50;;;;;;;3.83;1.40;;;;;;;;;;5036677;28;20025;-77
2022/07/07 06:14:16;;;;;;;4.43;1.50;;;;;;;;;;5036720;28;20040;-77
2022/07/07 06:16:42;;;;;;;5.20;1.48;;;;;;;;;;5037587;28;20084;-78
2022/07/07 06:19:12;;;;;;;3.67;1.48;;;;;;;;;;5038511;28;20029;-79
2022/07/07 06:21:39;;;;;;;5.05;1.90;;;;;;;;;;5044587;28;20032;-76
2022/07/07 06:24:05;;;;;;;7.28;1.90;;;;;;;;;;5045121;28;20045;-78
2022/07/07 06:26:31;;;;;;;11.40;5.85;;;;;;;;;;5044995;28;20072;-77
2022/07/07 06:28:57;;;;;;;5.93;2.50;;;;;;;;;;5047159;28;20029;-77
2022/07/07 06:31:23;;;;;;;5.88;1.77;;;;;;;;;;5046431;28;20022;-77
2022/07/07 06:33:49;;;;;;;3.58;1.30;;;;;;;;;;5048262;28;20053;-76
2022/07/07 06:36:15;;;;;;;6.57;1.73;;;;;;;;;;5044785;28;20055;-77
2022/07/07 06:38:41;;;;;;;17.42;7.28;;;;;;;;;;5047498;28;20517;-77
2022/07/07 06:41:07;;;;;;;10.82;3.30;;;;;;;;;;5047199;28;20028;-79
2022/07/07 06:43:33;;;;;;;10.93;1.73;;;;;;;;;;5049783;28;20005;-79
2022/07/07 06:45:59;;;;;;;6.00;2.22;;;;;;;;;;5047865;28;20040;-74
2022/07/07 06:48:25;;;;;;;10.40;2.13;;;;;;;;;;5046835;28;20037;-79
2022/07/07 06:50:51;;;;;;;5.75;2.05;;;;;;;;;;5051247;28;20025;-80
2022/07/07 06:53:17;;;;;;;7.57;1.85;;;;;;;;;;5052696;28;20032;-79
2022/07/07 06:55:43;;;;;;;6.47;1.90;;;;;;;;;;5041444;28;20048;-78
2022/07/07 06:58:09;;;;;;;8.65;2.15;;;;;;;;;;5063597;22;20010;-68
2022/07/07 07:00:35;;;;;;;10.70;2.03;;;;;;;;;;5073737;28;20086;-69
2022/07/07 07:03:01;;;;;;;8.57;2.20;;;;;;;;;;5073907;28;20802;-71
2022/07/07 07:05:27;;;;;;;16.17;2.45;;;;;;;;;;5073277;28;20032;-76
2022/07/07 07:07:53;;;;;;;8.68;2.03;;;;;;;;;;5073398;28;20464;-72
2022/07/07 07:10:19;;;;;;;9.68;2.13;;;;;;;;;;5073673;28;20052;-71
2022/07/07 07:12:45;;;;;;;10.23;2.03;;;;;;;;;;5074790;28;20021;-77
2022/07/07 07:15:11;;;;;;;10.77;2.33;;;;;;;;;;5074137;28;20503;-71
2022/07/07 07:17:37;;;;;;;10.85;2.00;;;;;;;;;;5073549;28;20020;-73
2022/07/07 07:20:04;;;;;;;12.00;2.25;;;;;;;;;;5072367;28;20572;-72
2022/07/07 07:22:37;;;;;;;16.52;2.60;;;;;;;;;;5072452;28;20103;-72
2022/07/07 07:25:03;;;;;;;15.20;2.60;;;;;;;;;;5073074;28;20024;-73
2022/07/07 07:27:29;;;;;;;11.68;2.17;;;;;;;;;;5076108;28;20116;-74
2022/07/07 07:29:55;;;;;;;13.93;2.63;;;;;;;;;;5070353;28;20054;-73
2022/07/07 07:32:20;;;;;;;12.60;2.63;;;;;;;;;;5072548;28;20024;-72
2022/07/07 07:34:46;;;;;;;10.93;2.40;;;;;;;;;;5072422;28;20036;-72
2022/07/07 07:37:12;;;;;;;7.32;1.50;;;;;;;;;;5071982;28;20031;-72
2022/07/07 07:39:38;;;;;;;7.13;1.73;;;;;;;;;;5072165;28;20039;-72
2022/07/07 07:42:04;;;;;;;8.57;1.70;;;;;;;;;;5072125;28;20081;-70
2022/07/07 07:47:15;;;;;;;5.20;1.73;;;;;;;;;;5072044;28;20055;-74
2022/07/07 07:49:41;;;;;;;6.28;1.67;;;;;;;;;;5072293;28;20025;-73
2022/07/07 07:52:07;;;;;;;4.93;1.80;;;;;;;;;;5072341;28;20035;-71
2022/07/07 07:54:33;;;;;;;5.22;1.88;;;;;;;;;;5072102;28;20074;-71
2022/07/07 07:56:59;;;;;;;8.25;2.30;;;;;;;;;;5072078;28;20025;-71
2022/07/07 07:59:25;;;;;;;11.35;2.90;;;;;;;;;;5073993;28;20036;-71
2022/07/07 08:01:51;;;;;;;11.00;3.67;;;;;;;;;;5073193;28;20516;-72
2022/07/07 08:04:17;;;;;;;15.93;3.88;;;;;;;;;;5073244;28;20020;-72
2022/07/07 08:06:43;;;;;;;15.18;4.43;;;;;;;;;;5072917;28;20033;-72
2022/07/07 08:09:09;;;;;;;10.10;2.50;;;;;;;;;;5074065;28;20033;-72
2022/07/07 08:11:35;;;;;;;10.70;2.65;;;;;;;;;;5076008;28;20024;-70
2022/07/07 08:14:01;;;;;;;19.77;4.75;;;;;;;;;;5074710;28;20504;-71
2022/07/07 08:16:27;;;;;;;10.35;3.10;;;;;;;;;;5073502;28;20021;-72
2022/07/07 08:18:53;;;;;;;34.70;7.63;;;;;;;;;;5074439;28;20037;-72
2022/07/07 08:21:19;;;;;;;12.32;3.53;;;;;;;;;;5072725;28;20036;-72
2022/07/07 08:23:45;;;;;;;19.08;3.90;;;;;;;;;;5072795;28;20066;-73
2022/07/07 08:26:12;;;;;;;13.27;2.60;;;;;;;;;;5071856;28;20189;-73
2022/07/07 08:28:38;;;;;;;15.18;3.35;;;;;;;;;;5071869;28;20493;-72
2022/07/07 08:31:06;;;;;;;10.85;2.13;;;;;;;;;;5071724;28;20024;-73
2022/07/07 08:33:32;;;;;;;9.23;2.17;;;;;;;;;;5073406;28;20028;-72
2022/07/07 08:35:58;;;;;;;8.85;2.35;;;;;;;;;;5072165;28;20016;-74
2022/07/07 08:38:24;;;;;;;11.77;2.30;;;;;;;;;;5072013;28;20477;-72
2022/07/07 08:40:51;;;;;;;25.58;6.10;;;;;;;;;;5072095;28;20373;-74
2022/07/07 08:43:16;;;;;;;10.23;2.13;;;;;;;;;;5072044;28;20025;-74
2022/07/07 08:45:43;;;;;;;13.73;2.78;;;;;;;;;;5071610;28;20978;-73
2022/07/07 08:48:09;;;;;;;24.52;6.88;;;;;;;;;;5072011;28;20077;-73
2022/07/07 08:50:38;;;;;;;17.80;4.43;;;;;;;;;;5072668;28;20021;-73
2022/07/07 08:53:04;;;;;;;19.05;4.07;;;;;;;;;;5072281;28;20361;-75
2022/07/07 08:55:32;;;;;;;10.25;2.10;;;;;;;;;;5071361;28;20024;-72
2022/07/07 08:57:58;;;;;;;7.75;2.00;;;;;;;;;;5071895;28;20028;-73
2022/07/07 09:00:25;;;;;;;13.02;2.60;;;;;;;;;;5072938;28;20475;-74
2022/07/07 09:02:55;;;;;;;7.38;1.95;;;;;;;;;;5072508;28;20024;-75
2022/07/07 09:05:21;;;;;;;10.15;2.40;;;;;;;;;;5071678;28;20024;-74
2022/07/07 09:07:48;;;;;;;11.65;2.83;;;;;;;;;;5071742;28;20028;-74
2022/07/07 09:10:33;;;;;;;19.88;2.70;;;;;;;;;;5071966;28;20044;-72
2022/07/07 09:12:59;;;;;;;;;;;;;;;;;;5072073;28;20017;-74
2022/07/07 09:15:26;;;;;;;9.65;2.00;;;;;;;;;;5071326;28;20372;-73
2022/07/07 09:17:52;;;;;;;8.10;1.65;;;;;;;;;;5070310;28;20082;-72
2022/07/07 09:20:18;;;;;;;8.88;2.42;;;;;;;;;;5071979;28;20123;-73
2022/07/07 09:22:56;;;;;;;12.55;2.08;;;;;;;;;;5072106;28;20481;-75
2022/07/07 09:25:24;;;;;;;12.38;1.90;;;;;;;;;;5073011;28;20056;-76
2022/07/07 09:27:50;;;;;;;7.57;1.83;;;;;;;;;;5078077;28;20085;-74
2022/07/07 09:30:26;;;;;;;11.75;2.45;;;;;;;;;;5073311;28;20052;-74
2022/07/07 09:32:52;;;;;;;13.25;2.53;;;;;;;;;;5072199;28;20096;-75
2022/07/07 09:38:16;;;;;;;8.13;2.13;;;;;;;;;;5072684;28;20113;-74
2022/07/07 09:41:03;;;;;;;7.80;2.20;;;;;;;;;;5072450;28;20402;-73
2022/07/07 09:43:30;;;;;;;11.25;2.30;;;;;;;;;;5075966;28;20132;-72
2022/07/07 09:46:13;;;;;;;9.15;2.92;;;;;;;;;;5075041;28;20473;-74
2022/07/07 09:48:40;;;;;;;10.68;2.50;;;;;;;;;;5077384;28;20469;-71
2022/07/07 09:51:16;;;;;;;6.78;2.25;;;;;;;;;;5075193;28;20021;-72
2022/07/07 09:53:59;;;;;;;12.18;2.42;;;;;;;;;;5076099;28;20024;-73
2022/07/07 09:56:32;;;;;;;8.38;2.88;;;;;;;;;;5077870;28;20048;-73
2022/07/07 09:58:59;;;;;;;7.82;2.40;;;;;;;;;;5076153;28;20107;-74
2022/07/07 10:01:26;;;;;;;8.45;2.38;;;;;;;;;;5075039;28;20028;-74
2022/07/07 10:03:54;;;;;;;11.25;2.08;;;;;;;;;;5074165;28;20029;-73
2022/07/07 10:06:20;;;;;;;9.77;2.10;;;;;;;;;;5074421;28;20107;-74
2022/07/07 10:08:47;;;;;;;8.93;2.47;;;;;;;;;;5074796;28;20401;-74
2022/07/07 10:11:13;;;;;;;9.88;2.28;;;;;;;;;;5074606;28;20033;-75
2022/07/07 10:13:43;;;;;;;8.05;2.28;;;;;;;;;;5074533;28;20021;-73
2022/07/07 10:16:09;;;;;;;13.45;2.53;;;;;;;;;;5074221;28;20078;-71
2022/07/07 10:18:35;;;;;;;11.48;2.83;;;;;;;;;;5073119;28;20024;-72
2022/07/07 10:21:01;;;;;;;17.83;4.50;;;;;;;;;;5074620;28;20100;-73
2022/07/07 10:23:28;;;;;;;7.95;1.83;;;;;;;;;;5074651;28;20024;-72
2022/07/07 10:26:01;;;;;;;8.48;1.80;;;;;;;;;;5074093;28;20031;-72
2022/07/07 10:28:50;;;;;;;8.82;1.80;;;;;;;;;;5074115;28;20078;-73
2022/07/07 10:31:21;;;;;;;14.43;3.15;;;;;;;;;;5077607;28;20020;-72
2022/07/07 10:33:54;;;;;;;8.63;1.65;;;;;;;;;;5074260;28;20425;-71
2022/07/07 10:36:20;;;;;;;7.35;1.67;;;;;;;;;;5074227;28;20020;-74
2022/07/07 10:38:48;;;;;;;12.07;2.20;;;;;;;;;;5074830;28;20020;-73
2022/07/07 10:41:17;;;;;;;12.13;1.92;;;;;;;;;;5074700;28;20059;-73
2022/07/07 10:43:46;;;;;;;10.25;2.30;;;;;;;;;;5074465;28;20453;-73
2022/07/07 10:46:12;;;;;;;8.80;2.67;;;;;;;;;;5074392;28;20385;-73
2022/07/07 10:48:42;;;;;;;9.25;1.98;;;;;;;;;;5074657;28;20020;-74
2022/07/07 10:51:34;;;;;;;9.00;2.67;;;;;;;;;;5074209;28;20104;-73
2022/07/07 10:54:01;;;;;;;9.52;1.80;;;;;;;;;;5074056;28;20396;-74
2022/07/07 10:56:27;;;;;;;10.13;2.17;;;;;;;;;;5075704;28;20020;-74
2022/07/07 10:58:55;;;;;;;7.85;2.15;;;;;;;;;;5073964;28;20032;-74
2022/07/07 11:01:21;;;;;;;9.90;2.17;;;;;;;;;;5074346;28;20024;-73
2022/07/07 11:03:47;;;;;;;7.95;1.55;;;;;;;;;;5082342;28;20028;-73
2022/07/07 11:06:13;;;;;;;6.32;1.73;;;;;;;;;;5073589;28;20036;-73
2022/07/07 11:08:39;;;;;;;8.90;1.83;;;;;;;;;;5076340;28;20025;-74
2022/07/07 11:11:07;;;;;;;4.95;1.35;;;;;;;;;;5074713;28;20027;-73
2022/07/07 11:13:34;;;;;;;11.75;2.20;;;;;;;;;;5073812;28;20471;-73
2022/07/07 11:16:06;;;;;;;8.43;2.20;;;;;;;;;;5075116;28;20587;-74
2022/07/07 11:18:34;;;;;;;8.10;2.13;;;;;;;;;;5072082;28;20040;-73
2022/07/07 11:21:01;;;;;;;12.98;2.03;;;;;;;;;;5075743;28;20115;-75
2022/07/07 11:23:42;;;;;;;6.85;1.17;;;;;;;;;;5075583;28;20028;-73
2022/07/07 11:26:08;;;;;;;4.70;1.55;;;;;;;;;;5074007;28;20115;-72
2022/07/07 11:28:35;;;;;;;5.65;1.83;;;;;;;;;;5074661;28;20509;-74
2022/07/07 11:31:03;;;;;;;9.35;1.70;;;;;;;;;;5075506;28;20389;-72
2022/07/07 11:33:29;;;;;;;7.38;0.95;;;;;;;;;;5075370;28;20043;-73
2022/07/07 11:35:55;;;;;;;9.40;1.38;;;;;;;;;;5072976;28;20048;-72
2022/07/07 11:38:26;;;;;;;12.18;4.68;;;;;;;;;;5073132;28;20384;-71
2022/07/07 11:40:52;;;;;;;11.38;2.60;;;;;;;;;;5074341;28;20021;-74
2022/07/07 11:43:25;;;;;;;4.10;1.20;;;;;;;;;;5077014;28;20032;-74
2022/07/07 11:45:51;;;;;;;4.20;1.65;;;;;;;;;;5074331;28;20021;-73
2022/07/07 11:48:17;;;;;;;2.78;0.95;;;;;;;;;;5073005;28;20037;-74
2022/07/07 11:50:45;;;;;;;6.75;1.27;;;;;;;;;;5074263;28;20021;-72
2022/07/07 11:53:13;;;;;;;5.97;1.20;;;;;;;;;;5072587;28;20123;-72
2022/07/07 11:55:39;;;;;;;6.38;1.23;;;;;;;;;;5072101;28;20025;-72
2022/07/07 11:58:06;;;;;;;5.40;1.15;;;;;;;;;;5072283;28;20051;-71
2022/07/07 12:00:33;;;;;;;5.25;1.20;;;;;;;;;;5073319;28;20040;-75
2022/07/07 12:03:00;;;;;;;5.57;1.40;;;;;;;;;;5070996;28;20025;-73
2022/07/07 12:05:27;;;;;;;2.97;1.38;;;;;;;;;;5071267;28;20028;-72
2022/07/07 12:07:57;;;;;;;7.78;1.60;;;;;;;;;;5072181;28;20036;-72
2022/07/07 12:10:30;;;;;;;6.28;1.35;;;;;;;;;;5070446;28;20052;-72
2022/07/07 12:12:57;;;;;;;11.18;2.28;;;;;;;;;;5072292;28;20031;-72
2022/07/07 12:15:24;;;;;;;9.48;2.42;;;;;;;;;;5071385;28;20081;-72
2022/07/07 12:17:50;;;;;;;15.57;2.83;;;;;;;;;;5072002;28;20025;-72
2022/07/07 12:20:17;;;;;;;19.33;3.10;;;;;;;;;;5072200;28;20021;-71
2022/07/07 12:22:46;;;;;;;16.70;2.60;;;;;;;;;;5072402;28;20092;-73
2022/07/07 12:25:12;;;;;;;16.52;2.58;;;;;;;;;;5072537;28;20032;-74
2022/07/07 12:27:59;;;;;;;13.05;2.80;;;;;;;;;;5072110;28;20027;-76
2022/07/07 12:30:25;;;;;;;13.35;2.65;;;;;;;;;;5072695;28;20426;-75
2022/07/07 12:32:52;;;;;;;16.30;3.13;;;;;;;;;;5073276;28;20035;-73
2022/07/07 12:35:31;;;;;;;15.25;3.00;;;;;;;;;;5078897;28;20017;-75
2022/07/07 12:38:00;;;;;;;20.98;3.25;;;;;;;;;;5077286;28;20039;-76
2022/07/07 12:40:26;;;;;;;17.33;3.13;;;;;;;;;;5083326;28;20033;-76
2022/07/07 12:42:52;;;;;;;18.92;2.92;;;;;;;;;;5080687;28;20105;-76
2022/07/07 12:45:19;;;;;;;16.10;3.53;;;;;;;;;;5074561;28;20020;-75
2022/07/07 12:47:48;;;;;;;19.02;3.65;;;;;;;;;;5074696;28;20508;-75
2022/07/07 12:50:15;;;;;;;17.88;3.15;;;;;;;;;;5080520;28;20052;-75
2022/07/07 12:52:41;;;;;;;22.60;3.67;;;;;;;;;;5072858;28;20017;-77
2022/07/07 12:55:08;;;;;;;20.55;3.70;;;;;;;;;;5076003;28;20074;-76
2022/07/07 12:57:34;;;;;;;19.05;3.55;;;;;;;;;;5075014;28;20048;-74
2022/07/07 13:00:00;;;;;;;25.13;3.88;;;;;;;;;;5074922;22;20471;-77
2022/07/07 13:02:26;;;;;;;21.40;3.72;;;;;;;;;;5051554;28;20057;-75
2022/07/07 13:04:53;;;;;;;24.33;4.05;;;;;;;;;;5052139;28;20032;-75
2022/07/07 13:07:22;;;;;;;27.17;4.75;;;;;;;;;;5051954;28;20029;-75
2022/07/07 13:09:48;;;;;;;28.75;4.22;;;;;;;;;;5052662;28;20413;-74
2022/07/07 13:12:15;;;;;;;27.33;4.50;;;;;;;;;;5053544;28;20032;-75
2022/07/07 13:14:41;;;;;;;27.98;4.03;;;;;;;;;;5051984;28;20025;-76
2022/07/07 13:17:07;;;;;;;37.15;4.95;;;;;;;;;;5053398;28;20021;-75
2022/07/07 13:19:33;;;;;;;25.20;4.10;;;;;;;;;;5054840;28;20025;-77
2022/07/07 13:21:59;;;;;;;36.72;4.47;;;;;;;;;;5056501;28;20190;-74
2022/07/07 13:24:25;;;;;;;28.90;3.97;;;;;;;;;;5056365;28;20021;-76
2022/07/07 13:26:51;;;;;;;32.67;4.57;;;;;;;;;;5055636;28;20029;-76
2022/07/07 13:29:17;;;;;;;27.50;4.25;;;;;;;;;;5055831;28;20631;-76
2022/07/07 13:31:43;;;;;;;25.52;4.18;;;;;;;;;;5056081;28;20029;-76
2022/07/07 13:34:09;;;;;;;39.08;4.30;;;;;;;;;;5055584;28;20447;-75
2022/07/07 13:36:36;;;;;;;25.15;3.63;;;;;;;;;;5055671;28;20378;-78
2022/07/07 13:39:02;;;;;;;26.40;3.58;;;;;;;;;;5054164;28;20025;-76
2022/07/07 13:41:28;;;;;;;19.67;3.53;;;;;;;;;;5055376;28;20102;-76
2022/07/07 13:43:54;;;;;;;21.05;3.75;;;;;;;;;;5055610;28;20033;-75
2022/07/07 13:46:20;;;;;;;17.42;3.00;;;;;;;;;;5055276;28;20033;-76
2022/07/07 13:48:46;;;;;;;21.13;4.28;;;;;;;;;;5055587;28;20033;-75
2022/07/07 13:51:12;;;;;;;24.13;3.78;;;;;;;;;;5056046;28;20029;-76
2022/07/07 13:53:38;;;;;;;27.63;4.07;;;;;;;;;;5054293;28;20056;-77
2022/07/07 13:56:04;;;;;;;23.83;4.43;;;;;;;;;;5055172;28;20496;-77
2022/07/07 13:58:30;;;;;;;39.20;5.00;;;;;;;;;;5055585;28;20114;-76
2022/07/07 14:00:56;;;;;;;24.63;3.50;;;;;;;;;;5056070;28;20033;-77
2022/07/07 14:03:22;;;;;;;22.05;4.03;;;;;;;;;;5056327;28;20025;-77
2022/07/07 14:05:48;;;;;;;30.88;3.75;;;;;;;;;;5055162;28;20025;-77
2022/07/07 14:08:14;;;;;;;19.75;3.40;;;;;;;;;;5057838;28;20083;-76
2022/07/07 14:10:40;;;;;;;17.30;3.55;;;;;;;;;;5055990;28;20033;-76
2022/07/07 14:13:06;;;;;;;24.48;3.88;;;;;;;;;;5056787;28;20109;-77
2022/07/07 14:15:32;;;;;;;29.88;4.22;;;;;;;;;;5055332;28;20032;-76
2022/07/07 14:17:58;;;;;;;30.27;4.53;;;;;;;;;;5058418;28;20029;-77
2022/07/07 14:20:24;;;;;;;19.27;3.13;;;;;;;;;;5063459;28;20033;-80
2022/07/07 14:22:50;;;;;;;27.50;3.22;;;;;;;;;;5073969;28;20048;-77
2022/07/07 14:25:17;;;;;;;22.90;3.50;;;;;;;;;;5067081;28;20103;-75
2022/07/07 14:27:43;;;;;;;23.13;3.90;;;;;;;;;;5063368;28;20021;-76
2022/07/07 14:30:11;;;;;;;23.17;4.45;;;;;;;;;;5062973;28;20079;-78
2022/07/07 14:32:37;;;;;;;23.65;3.95;;;;;;;;;;5064007;28;20086;-76
2022/07/07 14:35:04;;;;;;;19.30;3.67;;;;;;;;;;5067535;28;20033;-75
2022/07/07 14:37:30;;;;;;;17.90;3.40;;;;;;;;;;5065119;28;20127;-75
2022/07/07 14:39:56;;;;;;;22.38;3.60;;;;;;;;;;5069275;28;20020;-77